Time;durP1;ratioP1;P1;durP2;ratioP2;P2;SDS_P1;SDS_P2;PMS_P1;PMS_P2;Temp;Humidity;BMP_temperature;BMP_pressure;BME280_temperature;BME280_humidity;BME280_pressure;Samples;Min_cycle;Max_cycle;Signal;HPM_P1;HPM_P2
2023/12/17 00:01:09;;;;;;;22.48;16.95;;;;;;;0.34;100.00;98258.06;5088029;28;20574;-63
2023/12/17 00:03:34;;;;;;;23.63;17.30;;;;;;;0.28;100.00;98252.03;5090701;28;20080;-63
2023/12/17 00:05:59;;;;;;;19.48;14.05;;;;;;;0.26;100.00;98251.19;5082307;28;20089;-63
2023/12/17 00:08:25;;;;;;;17.17;14.95;;;;;;;0.24;100.00;98249.50;5094904;28;20056;-63
2023/12/17 00:10:51;;;;;;;18.55;15.73;;;;;;;0.20;100.00;98252.97;5088389;28;20035;-64
2023/12/17 00:13:18;;;;;;;18.83;14.70;;;;;;;0.07;100.00;98245.34;5089503;28;20412;-63
2023/12/17 00:15:44;;;;;;;21.45;15.52;;;;;;;0.02;100.00;98248.84;5085290;28;20027;-63
2023/12/17 00:18:11;;;;;;;21.80;16.52;;;;;;;0.02;100.00;98254.00;5092508;28;20149;-64
2023/12/17 00:20:37;;;;;;;23.02;17.67;;;;;;;-0.01;100.00;98252.31;5093640;28;20036;-64
2023/12/17 00:23:04;;;;;;;20.77;16.90;;;;;;;-0.02;100.00;98259.22;5093176;28;20496;-64
2023/12/17 00:25:30;;;;;;;24.83;18.55;;;;;;;-0.03;100.00;98260.09;5092845;28;20029;-64
2023/12/17 00:27:55;;;;;;;74.80;45.70;;;;;;;-0.01;100.00;98252.31;5094340;28;20452;-63
2023/12/17 00:30:21;;;;;;;36.30;24.40;;;;;;;-0.03;100.00;98257.50;5090951;28;20431;-63
2023/12/17 00:32:47;;;;;;;39.55;26.60;;;;;;;-0.10;100.00;98253.25;5091938;28;20555;-63
2023/12/17 00:35:12;;;;;;;41.72;26.75;;;;;;;-0.15;100.00;98261.06;5093471;28;20051;-64
2023/12/17 00:37:38;;;;;;;38.38;24.70;;;;;;;-0.15;100.00;98253.28;5094246;28;20080;-64
2023/12/17 00:40:04;;;;;;;39.90;25.25;;;;;;;-0.20;100.00;98247.31;5093702;28;20028;-63
2023/12/17 00:42:29;;;;;;;34.30;22.50;;;;;;;-0.26;100.00;98246.50;5094266;28;20020;-63
2023/12/17 00:44:54;;;;;;;29.95;19.58;;;;;;;-0.27;100.00;98239.59;5091585;28;20087;-63
2023/12/17 00:47:20;;;;;;;28.05;17.38;;;;;;;-0.28;100.00;98238.72;5087829;28;20053;-63
2023/12/17 00:49:45;;;;;;;57.70;39.17;;;;;;;-0.28;100.00;98243.91;5080747;28;20019;-63
2023/12/17 00:52:10;;;;;;;60.65;40.70;;;;;;;-0.29;100.00;98242.19;5092148;28;20032;-64
2023/12/17 00:54:36;;;;;;;44.85;32.10;;;;;;;-0.32;100.00;98240.50;5087089;28;20027;-63
2023/12/17 00:57:01;;;;;;;28.25;19.98;;;;;;;-0.39;100.00;98235.38;5094215;28;20035;-63
2023/12/17 00:59:27;;;;;;;32.00;20.30;;;;;;;-0.41;100.00;98237.94;5086387;28;20031;-63
2023/12/17 01:01:53;;;;;;;44.92;24.80;;;;;;;-0.46;100.00;98237.13;5082755;28;20033;-63
2023/12/17 01:04:18;;;;;;;35.75;18.48;;;;;;;-0.49;100.00;98243.19;5090605;28;20032;-63
2023/12/17 01:06:43;;;;;;;27.88;20.50;;;;;;;-0.55;100.00;98244.94;5082408;28;20095;-63
2023/12/17 01:09:10;;;;;;;29.33;18.80;;;;;;;-0.58;100.00;98248.44;5097001;28;20035;-63
2023/12/17 01:11:36;;;;;;;20.45;15.20;;;;;;;-0.55;100.00;98250.13;5085427;28;20019;-63
2023/12/17 01:14:01;;;;;;;20.15;13.85;;;;;;;-0.50;100.00;98254.41;5089630;28;20015;-64
2023/12/17 01:16:27;;;;;;;28.02;15.90;;;;;;;-0.49;100.00;98255.28;5085041;28;20104;-63
2023/12/17 01:18:52;;;;;;;98.57;55.25;;;;;;;-0.48;100.00;98257.84;5082436;28;20090;-63
2023/12/17 01:21:17;;;;;;;103.05;59.72;;;;;;;-0.47;100.00;98261.31;5086235;28;20106;-64
2023/12/17 01:23:43;;;;;;;57.22;33.00;;;;;;;-0.54;100.00;98262.22;5090659;28;20027;-64
2023/12/17 01:26:08;;;;;;;46.38;23.40;;;;;;;-0.59;100.00;98265.69;5086815;28;20025;-63
2023/12/17 01:28:35;;;;;;;43.08;23.05;;;;;;;-0.63;100.00;98274.31;5087459;28;20030;-63
2023/12/17 01:31:00;;;;;;;39.28;23.75;;;;;;;-0.63;100.00;98265.72;5090532;28;20089;-63
2023/12/17 01:33:26;;;;;;;27.90;19.35;;;;;;;-0.61;100.00;98269.16;5087464;28;20066;-63
2023/12/17 01:35:51;;;;;;;65.68;41.47;;;;;;;-0.56;100.00;98266.53;5089479;28;20017;-63
2023/12/17 01:38:16;;;;;;;65.22;40.22;;;;;;;-0.54;100.00;98267.41;5091235;28;20036;-63
2023/12/17 01:40:42;;;;;;;60.00;36.33;;;;;;;-0.55;100.00;98263.94;5084035;28;20021;-64
2023/12/17 01:43:10;;;;;;;30.73;23.17;;;;;;;-0.50;100.00;98269.09;5085273;28;20021;-63
2023/12/17 01:45:35;;;;;;;38.72;25.17;;;;;;;-0.48;100.00;98262.19;5076916;28;20035;-63
2023/12/17 01:48:02;;;;;;;50.10;26.98;;;;;;;-0.51;100.00;98257.03;5084525;28;20025;-63
2023/12/17 01:50:28;;;;;;;39.17;30.70;;;;;;;-0.64;100.00;98264.84;5095839;28;20024;-63
2023/12/17 01:52:54;;;;;;;166.18;75.25;;;;;;;-0.62;100.00;98255.34;5093251;28;20476;-63
2023/12/17 01:55:20;;;;;;;96.72;51.55;;;;;;;-0.63;100.00;98248.44;5088427;28;20047;-64
2023/12/17 01:57:46;;;;;;;140.20;76.38;;;;;;;-0.63;100.00;98242.44;5082743;28;20106;-64
2023/12/17 02:00:12;;;;;;;135.82;75.20;;;;;;;-0.61;100.00;98244.13;5093747;28;20476;-63
2023/12/17 02:02:37;;;;;;;50.78;33.88;;;;;;;-0.69;100.00;98251.09;5091418;28;20020;-63
2023/12/17 02:05:05;;;;;;;47.00;28.02;;;;;;;-0.73;100.00;98244.22;5091981;28;20586;-63
2023/12/17 02:07:32;;;;;;;27.67;21.83;;;;;;;-0.83;100.00;98230.47;5076196;28;20078;-63
2023/12/17 02:09:57;;;;;;;30.17;22.65;;;;;;;-0.87;100.00;98228.78;5089878;28;20065;-63
2023/12/17 02:12:26;;;;;;;39.53;26.77;;;;;;;-0.85;100.00;98218.41;5093232;28;20028;-64
2023/12/17 02:14:52;;;;;;;44.17;29.52;;;;;;;-0.90;100.00;98215.84;5088657;28;20032;-64
2023/12/17 02:17:29;;;;;;;30.75;23.05;;;;;;;-0.91;100.00;98217.59;5085405;28;20020;-64
2023/12/17 02:19:55;;;;;;;42.25;28.63;;;;;;;-0.98;100.00;98210.75;5090087;28;20036;-63
2023/12/17 02:22:22;;;;;;;68.53;42.85;;;;;;;-0.97;100.00;98193.47;5090619;28;20035;-64
2023/12/17 02:24:48;;;;;;;71.45;43.05;;;;;;;-0.97;100.00;98185.72;5087250;28;20496;-63
2023/12/17 02:27:25;;;;;;;56.20;36.80;;;;;;;-1.02;100.00;98177.97;5090587;28;20047;-63
2023/12/17 02:29:51;;;;;;;41.33;29.50;;;;;;;-1.04;100.00;98174.53;5080493;28;20012;-63
2023/12/17 02:32:18;;;;;;;47.55;32.22;;;;;;;-1.06;100.00;98161.66;5088913;28;20055;-63
2023/12/17 02:34:43;;;;;;;46.95;32.72;;;;;;;-1.10;100.00;98161.66;5083583;28;20012;-63
2023/12/17 02:37:09;;;;;;;43.60;32.35;;;;;;;-1.12;100.00;98156.50;5088835;28;20020;-63
2023/12/17 02:39:34;;;;;;;45.92;31.65;;;;;;;-1.12;100.00;98158.22;5098532;28;20032;-63
2023/12/17 02:42:00;;;;;;;44.20;31.40;;;;;;;-1.13;100.00;98159.94;5089711;28;20027;-63
2023/12/17 02:44:25;;;;;;;41.00;31.45;;;;;;;-1.14;100.00;98157.38;5093425;28;20028;-63
2023/12/17 02:46:51;;;;;;;47.67;33.03;;;;;;;-1.16;100.00;98160.84;5084491;28;20104;-63
2023/12/17 02:49:16;;;;;;;58.25;39.05;;;;;;;-1.15;100.00;98161.69;5086421;28;20020;-63
2023/12/17 02:51:42;;;;;;;45.35;31.80;;;;;;;-1.21;100.00;98160.00;5085545;28;20023;-64
2023/12/17 02:54:07;;;;;;;36.13;27.33;;;;;;;-1.20;100.00;98156.56;5098601;28;20048;-63
2023/12/17 02:56:39;;;;;;;37.55;27.58;;;;;;;-1.24;100.00;98152.25;5094909;28;20016;-63
2023/12/17 02:59:07;;;;;;;26.30;19.38;;;;;;;-1.23;100.00;98159.13;5098714;28;20609;-64
2023/12/17 03:01:32;;;;;;;23.27;19.65;;;;;;;-1.24;100.00;98157.41;5099158;28;20476;-63
2023/12/17 03:03:58;;;;;;;35.13;26.23;;;;;;;-1.28;100.00;98153.13;5098719;28;20028;-63
2023/12/17 03:06:23;;;;;;;36.10;24.48;;;;;;;-1.35;100.00;98161.81;5093271;28;20028;-64
2023/12/17 03:08:49;;;;;;;29.67;22.58;;;;;;;-1.34;100.00;98154.03;5090124;28;20040;-63
2023/12/17 03:11:14;;;;;;;34.55;22.92;;;;;;;-1.30;100.00;98157.47;5091489;28;20036;-64
2023/12/17 03:13:39;;;;;;;31.90;24.33;;;;;;;-1.28;100.00;98157.47;5095461;28;20036;-63
2023/12/17 03:16:08;;;;;;;28.42;21.25;;;;;;;-1.26;100.00;98156.56;5096733;28;20028;-63
2023/12/17 03:18:34;;;;;;;25.88;19.67;;;;;;;-1.28;100.00;98150.56;5094909;28;20080;-63
2023/12/17 03:20:59;;;;;;;23.30;18.70;;;;;;;-1.34;100.00;98156.59;5094729;28;20047;-63
2023/12/17 03:23:24;;;;;;;18.40;16.45;;;;;;;-1.40;100.00;98153.22;5102294;28;20024;-63
2023/12/17 03:25:50;;;;;;;12.45;11.15;;;;;;;-1.34;100.00;98145.44;5094320;28;20123;-63
2023/12/17 03:28:15;;;;;;;20.02;12.25;;;;;;;-1.32;100.00;98146.28;5095293;28;20052;-63
2023/12/17 03:30:40;;;;;;;16.38;13.32;;;;;;;-1.26;100.00;98138.47;5076769;28;20032;-63
2023/12/17 03:33:06;;;;;;;31.35;12.82;;;;;;;-1.24;100.00;98139.31;5091130;28;20031;-63
2023/12/17 03:35:31;;;;;;;24.52;14.00;;;;;;;-1.24;100.00;98134.16;5088013;28;20127;-63
2023/12/17 03:37:56;;;;;;;18.23;14.40;;;;;;;-1.24;100.00;98141.91;5088049;28;20016;-64
2023/12/17 03:40:22;;;;;;;20.67;13.80;;;;;;;-1.23;100.00;98142.78;5097726;28;20107;-63
2023/12/17 03:42:47;;;;;;;22.42;16.35;;;;;;;-1.27;100.00;98141.94;5087534;28;20362;-63
2023/12/17 03:45:13;;;;;;;18.95;15.35;;;;;;;-1.34;100.00;98138.50;5079094;28;20030;-64
2023/12/17 03:47:43;;;;;;;18.88;14.65;;;;;;;-1.32;100.00;98141.09;5096923;28;20024;-63
2023/12/17 03:50:08;;;;;;;30.30;19.85;;;;;;;-1.36;100.00;98135.09;5083695;28;20103;-63
2023/12/17 03:52:34;;;;;;;28.98;23.30;;;;;;;-1.37;100.00;98128.19;5085056;28;20047;-63
2023/12/17 03:54:59;;;;;;;28.55;18.80;;;;;;;-1.39;100.00;98129.09;5097712;28;20020;-63
2023/12/17 03:57:24;;;;;;;24.50;19.42;;;;;;;-1.38;100.00;98125.63;5097359;28;20030;-63
2023/12/17 03:59:50;;;;;;;18.38;16.40;;;;;;;-1.40;100.00;98114.44;5095718;28;20055;-63
2023/12/17 04:02:16;;;;;;;21.55;18.08;;;;;;;-1.42;100.00;98111.88;5097409;28;20472;-63
2023/12/17 04:04:41;;;;;;;26.10;19.90;;;;;;;-1.46;100.00;98113.59;5096747;28;20016;-63
2023/12/17 04:07:07;;;;;;;23.45;18.98;;;;;;;-1.45;100.00;98111.88;5084072;28;20050;-63
2023/12/17 04:09:32;;;;;;;22.02;17.70;;;;;;;-1.47;100.00;98114.47;5095808;28;20036;-63
2023/12/17 04:11:57;;;;;;;19.83;16.75;;;;;;;-1.47;100.00;98121.38;5096902;28;20020;-63
2023/12/17 04:14:23;;;;;;;19.25;16.92;;;;;;;-1.50;100.00;98116.22;5097333;28;20161;-63
2023/12/17 04:16:49;;;;;;;19.98;15.85;;;;;;;-1.51;100.00;98119.69;5097045;28;20099;-63
2023/12/17 04:19:14;;;;;;;17.95;14.75;;;;;;;-1.52;100.00;98125.72;5084200;28;20543;-63
2023/12/17 04:21:40;;;;;;;17.35;15.50;;;;;;;-1.54;100.00;98122.28;5103650;28;20032;-63
2023/12/17 04:24:05;;;;;;;21.70;14.88;;;;;;;-1.51;100.00;98127.44;5110538;28;20532;-63
2023/12/17 04:26:31;;;;;;;18.63;15.15;;;;;;;-1.53;100.00;98131.75;5091243;28;20031;-63
2023/12/17 04:28:56;;;;;;;15.63;13.43;;;;;;;-1.58;100.00;98137.78;5097039;28;20035;-63
2023/12/17 04:31:22;;;;;;;19.63;14.43;;;;;;;-1.58;100.00;98140.34;5096843;28;20091;-63
2023/12/17 04:33:47;;;;;;;18.92;14.95;;;;;;;-1.56;100.00;98130.03;5097147;28;20023;-63
2023/12/17 04:36:12;;;;;;;21.08;15.95;;;;;;;-1.57;100.00;98136.06;5095431;28;20064;-63
2023/12/17 04:38:38;;;;;;;17.67;15.18;;;;;;;-1.59;100.00;98130.88;5095582;28;20028;-63
2023/12/17 04:41:03;;;;;;;20.20;16.33;;;;;;;-1.63;100.00;98139.53;5094204;28;20020;-63
2023/12/17 04:43:29;;;;;;;10.55;9.18;;;;;;;-1.64;100.00;98142.13;5096070;28;20024;-63
2023/12/17 04:45:55;;;;;;;14.10;12.02;;;;;;;-1.70;100.00;98142.13;5096701;28;20024;-63
2023/12/17 04:48:20;;;;;;;14.77;11.93;;;;;;;-1.74;100.00;98136.97;5091224;28;20393;-64
2023/12/17 04:50:46;;;;;;;11.40;7.45;;;;;;;-1.76;100.00;98136.13;5088279;28;20028;-63
2023/12/17 04:53:11;;;;;;;12.80;8.95;;;;;;;-1.73;100.00;98132.69;5083210;28;20032;-63
2023/12/17 04:55:36;;;;;;;10.00;8.75;;;;;;;-1.72;100.00;98131.81;5084915;28;20110;-63
2023/12/17 04:58:02;;;;;;;12.95;10.32;;;;;;;-1.73;100.00;98127.53;5093902;28;20377;-63
2023/12/17 05:00:27;;;;;;;12.23;9.32;;;;;;;-1.75;100.00;98127.50;5096529;28;20047;-63
2023/12/17 05:02:53;;;;;;;9.38;8.40;;;;;;;-1.79;100.00;98136.16;5096262;28;20012;-63
2023/12/17 05:05:18;;;;;;;10.48;8.73;;;;;;;-1.82;100.00;98143.03;5096511;28;20476;-63
2023/12/17 05:07:43;;;;;;;9.15;8.25;;;;;;;-1.87;100.00;98143.06;5095676;28;20028;-63
2023/12/17 05:10:09;;;;;;;10.98;9.65;;;;;;;-1.88;100.00;98149.94;5096463;28;20016;-63
2023/12/17 05:12:34;;;;;;;25.02;18.35;;;;;;;-1.89;100.00;98143.06;5094780;28;20031;-63
2023/12/17 05:15:00;;;;;;;9.25;8.35;;;;;;;-1.85;100.00;98145.63;5095989;28;20031;-63
2023/12/17 05:17:25;;;;;;;8.57;7.82;;;;;;;-1.89;100.00;98152.53;5096039;28;20020;-64
2023/12/17 05:19:50;;;;;;;7.63;6.90;;;;;;;-1.84;100.00;98155.09;5094795;28;20043;-63
2023/12/17 05:22:16;;;;;;;12.77;9.23;;;;;;;-1.87;100.00;98155.97;5095796;28;20164;-63
2023/12/17 05:24:41;;;;;;;8.43;7.28;;;;;;;-1.87;100.00;98158.56;5091093;28;20028;-63
2023/12/17 05:27:06;;;;;;;8.50;7.65;;;;;;;-1.87;100.00;98158.56;5094354;28;20056;-63
2023/12/17 05:29:32;;;;;;;10.60;8.25;;;;;;;-1.85;100.00;98146.50;5095863;28;20047;-63
2023/12/17 05:31:57;;;;;;;8.40;6.70;;;;;;;-1.81;100.00;98147.34;5094802;28;20041;-63
2023/12/17 05:34:25;;;;;;;8.27;7.20;;;;;;;-1.80;100.00;98139.59;5095759;28;20079;-64
2023/12/17 05:36:50;;;;;;;12.93;8.80;;;;;;;-1.79;100.00;98145.59;5095632;28;20020;-63
2023/12/17 05:39:16;;;;;;;13.77;10.48;;;;;;;-1.78;100.00;98144.75;5090767;28;20043;-63
2023/12/17 05:41:41;;;;;;;16.42;11.18;;;;;;;-1.79;100.00;98143.03;5095405;28;20030;-63
2023/12/17 05:44:06;;;;;;;9.57;8.57;;;;;;;-1.83;100.00;98139.59;5092818;28;20043;-63
2023/12/17 05:46:32;;;;;;;8.80;7.90;;;;;;;-1.85;100.00;98143.91;5091659;28;20023;-63
2023/12/17 05:48:57;;;;;;;11.80;8.80;;;;;;;-1.88;100.00;98134.44;5084320;28;20077;-63
2023/12/17 05:51:22;;;;;;;10.77;8.23;;;;;;;-1.88;100.00;98131.00;5095539;28;20415;-63
2023/12/17 05:53:48;;;;;;;8.27;7.47;;;;;;;-1.86;100.00;98134.47;5094266;28;20035;-63
2023/12/17 05:56:13;;;;;;;8.07;7.28;;;;;;;-1.90;100.00;98135.31;5095115;28;20084;-63
2023/12/17 05:58:39;;;;;;;8.70;7.80;;;;;;;-1.96;100.00;98133.63;5095018;28;20079;-64
2023/12/17 06:01:04;;;;;;;10.73;8.05;;;;;;;-1.94;100.00;98147.38;5091655;28;20020;-63
2023/12/17 06:03:30;;;;;;;14.90;7.95;;;;;;;-1.94;100.00;98147.38;5095402;28;20154;-63
2023/12/17 06:05:55;;;;;;;12.27;7.90;;;;;;;-1.96;100.00;98148.25;5093906;28;20038;-63
2023/12/17 06:08:21;;;;;;;10.15;7.20;;;;;;;-1.99;100.00;98162.03;5095285;28;20027;-63
2023/12/17 06:10:46;;;;;;;7.93;7.13;;;;;;;-1.98;100.00;98174.09;5094768;28;20039;-63
2023/12/17 06:13:12;;;;;;;8.02;6.97;;;;;;;-1.99;100.00;98167.22;5084744;28;20056;-63
2023/12/17 06:15:37;;;;;;;8.73;7.90;;;;;;;-1.99;100.00;98168.91;5078450;28;20084;-63
2023/12/17 06:18:03;;;;;;;8.27;6.85;;;;;;;-1.99;100.00;98161.16;5083461;28;20029;-63
2023/12/17 06:20:30;;;;;;;7.82;7.07;;;;;;;-1.99;100.00;98167.22;5092327;28;20063;-63
2023/12/17 06:22:55;;;;;;;11.82;7.75;;;;;;;-2.03;100.00;98158.59;5084385;28;20517;-63
2023/12/17 06:25:21;;;;;;;10.25;9.10;;;;;;;-2.09;100.00;98166.38;5085700;28;20035;-63
2023/12/17 06:27:48;;;;;;;9.90;8.52;;;;;;;-2.08;100.00;98167.22;5094740;28;20158;-63
2023/12/17 06:30:13;;;;;;;8.55;7.60;;;;;;;-2.05;100.00;98172.38;5094550;28;20024;-63
2023/12/17 06:32:41;;;;;;;8.95;7.78;;;;;;;-2.06;100.00;98168.94;5093829;28;20028;-63
2023/12/17 06:35:06;;;;;;;11.07;6.25;;;;;;;-1.96;100.00;98184.41;5094785;28;20081;-63
2023/12/17 06:37:32;;;;;;;9.45;6.93;;;;;;;-1.93;100.00;98192.13;5102870;28;20039;-64
2023/12/17 06:39:57;;;;;;;9.07;8.18;;;;;;;-1.93;100.00;98176.63;5096500;28;20052;-63
2023/12/17 06:42:22;;;;;;;7.75;7.00;;;;;;;-1.93;100.00;98190.44;5094987;28;20806;-64
2023/12/17 06:44:48;;;;;;;10.23;7.85;;;;;;;-1.95;100.00;98192.16;5093997;28;20032;-64
2023/12/17 06:47:15;;;;;;;9.30;7.35;;;;;;;-1.96;100.00;98181.81;5085637;28;20032;-64
2023/12/17 06:49:40;;;;;;;33.60;22.90;;;;;;;-1.98;100.00;98179.25;5077495;28;20028;-63
2023/12/17 06:52:06;;;;;;;71.13;40.38;;;;;;;-1.96;100.00;98181.81;5084149;28;20525;-64
2023/12/17 06:54:31;;;;;;;48.13;31.00;;;;;;;-1.98;100.00;98181.84;5090918;28;20131;-64
2023/12/17 06:56:56;;;;;;;33.90;23.58;;;;;;;-2.09;100.00;98179.28;5093205;28;20039;-64
2023/12/17 06:59:22;;;;;;;30.52;21.23;;;;;;;-2.05;100.00;98190.44;5094151;28;20026;-63
2023/12/17 07:01:47;;;;;;;27.83;18.73;;;;;;;-2.04;100.00;98180.13;5092978;28;20024;-64
2023/12/17 07:04:12;;;;;;;18.52;14.90;;;;;;;-2.06;100.00;98179.25;5089183;28;20532;-64
2023/12/17 07:06:38;;;;;;;17.80;13.20;;;;;;;-1.98;100.00;98191.28;5088101;28;20020;-64
2023/12/17 07:09:03;;;;;;;13.77;11.63;;;;;;;-1.95;100.00;98187.00;5088536;28;20055;-64
2023/12/17 07:11:29;;;;;;;15.68;11.90;;;;;;;-1.91;100.00;98190.41;5089553;28;20531;-64
2023/12/17 07:13:54;;;;;;;16.25;12.07;;;;;;;-1.95;100.00;98187.00;5091057;28;20447;-63
2023/12/17 07:16:23;;;;;;;13.82;11.95;;;;;;;-1.96;100.00;98193.00;5089380;28;20070;-64
2023/12/17 07:18:50;;;;;;;14.32;11.75;;;;;;;-1.99;100.00;98198.19;5088105;28;20752;-64
2023/12/17 07:21:16;;;;;;;14.07;11.57;;;;;;;-2.02;100.00;98193.88;5088905;28;20032;-64
2023/12/17 07:23:42;;;;;;;13.98;12.48;;;;;;;-2.03;100.00;98187.00;5088092;28;20077;-64
2023/12/17 07:26:07;;;;;;;14.85;11.85;;;;;;;-2.08;100.00;98190.44;5066694;28;20028;-64
2023/12/17 07:28:32;;;;;;;14.40;12.90;;;;;;;-2.16;100.00;98196.50;5081451;28;20024;-64
2023/12/17 07:30:58;;;;;;;15.10;13.48;;;;;;;-2.18;100.00;98202.50;5083585;28;20725;-64
2023/12/17 07:33:23;;;;;;;17.13;14.13;;;;;;;-2.14;100.00;98193.88;5089121;28;20107;-63
2023/12/17 07:35:48;;;;;;;23.48;16.58;;;;;;;-2.09;100.00;98186.13;5071511;28;20028;-64
2023/12/17 07:38:14;;;;;;;20.05;16.75;;;;;;;-2.08;100.00;98178.41;5085086;28;20047;-64
2023/12/17 07:40:39;;;;;;;21.08;18.45;;;;;;;-2.05;100.00;98188.72;5086745;28;20023;-63
2023/12/17 07:43:05;;;;;;;21.25;18.45;;;;;;;-2.04;100.00;98185.28;5085639;28;20126;-64
2023/12/17 07:45:32;;;;;;;26.15;21.02;;;;;;;-2.05;100.00;98170.66;5090073;28;20556;-64
2023/12/17 07:47:58;;;;;;;23.60;18.83;;;;;;;-2.03;100.00;98176.66;5093583;28;20542;-64
2023/12/17 07:50:24;;;;;;;23.25;20.52;;;;;;;-2.01;100.00;98171.50;5095287;28;20019;-64
2023/12/17 07:52:49;;;;;;;20.58;18.35;;;;;;;-2.03;100.00;98168.94;5095093;28;20024;-64
2023/12/17 07:55:14;;;;;;;19.75;16.63;;;;;;;-1.97;100.00;98165.47;5094328;28;20062;-63
2023/12/17 07:57:40;;;;;;;19.35;16.08;;;;;;;-1.90;100.00;98166.28;5095823;28;20103;-64
2023/12/17 08:00:07;;;;;;;18.45;16.02;;;;;;;-1.82;100.00;98163.69;5095981;28;20020;-64
2023/12/17 08:02:33;;;;;;;23.63;19.52;;;;;;;-1.78;100.00;98160.22;5095799;28;20032;-64
2023/12/17 08:04:58;;;;;;;21.25;19.08;;;;;;;-1.77;100.00;98160.25;5088908;28;20321;-64
2023/12/17 08:07:23;;;;;;;22.02;19.60;;;;;;;-1.78;100.00;98170.56;5089449;28;20115;-64
2023/12/17 08:09:49;;;;;;;24.38;20.60;;;;;;;-1.86;100.00;98165.44;5083679;28;20039;-64
2023/12/17 08:12:14;;;;;;;26.00;23.23;;;;;;;-1.87;100.00;98177.50;5086514;28;20071;-64
2023/12/17 08:14:41;;;;;;;26.08;23.13;;;;;;;-1.82;100.00;98184.34;5061383;28;20016;-64
2023/12/17 08:17:07;;;;;;;20.90;18.20;;;;;;;-1.78;100.00;98181.78;5094074;28;20032;-64
2023/12/17 08:19:33;;;;;;;24.83;18.98;;;;;;;-1.75;100.00;98191.25;5077726;28;20052;-64
2023/12/17 08:21:58;;;;;;;25.70;21.23;;;;;;;-1.78;100.00;98186.94;5086361;28;20112;-63
2023/12/17 08:24:24;;;;;;;24.10;21.80;;;;;;;-1.78;100.00;98196.41;5086572;28;20059;-64
2023/12/17 08:26:50;;;;;;;23.40;20.15;;;;;;;-1.78;100.00;98202.44;5083802;28;20020;-64
2023/12/17 08:29:16;;;;;;;21.08;18.20;;;;;;;-1.83;100.00;98201.59;5088994;28;20024;-64
2023/12/17 08:31:44;;;;;;;21.67;19.10;;;;;;;-1.81;100.00;98196.41;5083684;28;20020;-64
2023/12/17 08:34:10;;;;;;;20.65;18.48;;;;;;;-1.82;100.00;98195.56;5079157;28;20155;-64
2023/12/17 08:36:36;;;;;;;24.83;21.17;;;;;;;-1.78;100.00;98198.97;5091752;28;20034;-64
2023/12/17 08:39:02;;;;;;;24.25;19.90;;;;;;;-1.74;100.00;98205.88;5094418;28;20118;-64
2023/12/17 08:41:31;;;;;;;27.70;21.27;;;;;;;-1.77;100.00;98204.16;5086703;28;20055;-64
2023/12/17 08:43:56;;;;;;;27.73;21.05;;;;;;;-1.75;100.00;98211.91;5095573;28;20020;-63
2023/12/17 08:46:21;;;;;;;22.90;20.00;;;;;;;-1.75;100.00;98214.50;5094871;28;20379;-63
2023/12/17 08:48:47;;;;;;;22.30;19.58;;;;;;;-1.71;100.00;98211.03;5078351;28;20024;-63
2023/12/17 08:51:12;;;;;;;21.27;18.42;;;;;;;-1.67;100.00;98214.44;5089133;28;20024;-64
2023/12/17 08:53:39;;;;;;;23.05;20.10;;;;;;;-1.69;100.00;98217.06;5086349;28;20028;-63
2023/12/17 08:56:08;;;;;;;26.08;22.20;;;;;;;-1.67;100.00;98209.28;5085195;28;20063;-64
2023/12/17 08:58:33;;;;;;;25.73;22.65;;;;;;;-1.67;100.00;98212.75;5089866;28;20028;-63
2023/12/17 09:00:58;;;;;;;30.70;25.25;;;;;;;-1.65;100.00;98215.34;5095454;28;20020;-64
2023/12/17 09:03:24;;;;;;;37.38;26.08;;;;;;;-1.63;100.00;98206.69;5086349;28;20449;-64
2023/12/17 09:05:50;;;;;;;31.88;25.55;;;;;;;-1.66;100.00;98216.16;5093614;28;20027;-63
2023/12/17 09:08:15;;;;;;;28.10;23.95;;;;;;;-1.66;100.00;98209.28;5095941;28;20111;-64
2023/12/17 09:10:40;;;;;;;29.60;25.48;;;;;;;-1.65;100.00;98212.75;5074220;28;20024;-64
2023/12/17 09:13:09;;;;;;;30.35;26.25;;;;;;;-1.62;100.00;98217.91;5106391;28;20097;-64
2023/12/17 09:15:35;;;;;;;33.10;26.30;;;;;;;-1.62;100.00;98212.72;5095840;28;20024;-64
2023/12/17 09:18:00;;;;;;;30.25;26.20;;;;;;;-1.59;100.00;98217.88;5096118;28;20026;-63
2023/12/17 09:20:25;;;;;;;32.13;28.05;;;;;;;-1.58;100.00;98219.59;5092078;28;20044;-64
2023/12/17 09:22:52;;;;;;;58.35;37.65;;;;;;;-1.56;100.00;98225.63;5088289;28;20016;-64
2023/12/17 09:25:17;;;;;;;59.03;44.10;;;;;;;-1.57;100.00;98226.50;5087794;28;20024;-64
2023/12/17 09:27:42;;;;;;;57.42;43.67;;;;;;;-1.56;100.00;98220.47;5085231;28;20028;-63
2023/12/17 09:30:08;;;;;;;62.15;46.15;;;;;;;-1.52;100.00;98224.75;5091315;28;20028;-64
2023/12/17 09:32:34;;;;;;;164.23;106.13;;;;;;;-1.49;100.00;98218.72;5078205;28;20051;-63
2023/12/17 09:34:59;;;;;;;134.75;93.70;;;;;;;-1.33;100.00;98214.34;5093222;28;20039;-64
2023/12/17 09:37:25;;;;;;;125.20;86.47;;;;;;;-1.02;100.00;98212.47;5094808;28;20086;-64
2023/12/17 09:39:50;;;;;;;134.52;92.85;;;;;;;-0.61;100.00;98215.66;5091430;28;20578;-64
2023/12/17 09:42:19;;;;;;;114.18;86.03;;;;;;;-0.24;100.00;98209.34;5090355;28;20024;-64
2023/12/17 09:44:44;;;;;;;88.13;69.10;;;;;;;0.19;100.00;98218.44;5080059;28;20035;-64
2023/12/17 09:47:10;;;;;;;56.65;43.38;;;;;;;0.69;100.00;98204.94;5093904;28;20043;-64
2023/12/17 09:49:35;;;;;;;33.03;27.25;;;;;;;1.09;100.00;98219.97;5090404;28;20090;-64
2023/12/17 09:52:07;;;;;;;45.17;38.10;;;;;;;1.26;100.00;98224.94;5093350;28;20081;-64
2023/12/17 09:54:32;;;;;;;55.45;43.05;;;;;;;1.23;100.00;98230.16;5092757;28;20032;-64
2023/12/17 09:57:00;;;;;;;38.47;33.10;;;;;;;1.41;100.00;98226.44;5085612;28;20032;-65
2023/12/17 09:59:25;;;;;;;27.75;25.05;;;;;;;1.63;100.00;98233.06;5087138;28;20507;-64
2023/12/17 10:01:54;;;;;;;23.98;19.77;;;;;;;1.82;100.00;98234.47;5083461;28;20080;-64
2023/12/17 10:04:24;;;;;;;19.92;17.40;;;;;;;1.86;100.00;98232.69;5090107;28;20093;-64
2023/12/17 10:06:50;;;;;;;16.77;15.07;;;;;;;2.07;100.00;98243.59;5084049;28;20024;-65
2023/12/17 10:09:15;;;;;;;37.13;33.22;;;;;;;2.07;100.00;98244.47;5090913;28;20027;-65
2023/12/17 10:11:41;;;;;;;16.83;15.32;;;;;;;2.27;100.00;98241.50;5084839;28;20439;-65
2023/12/17 10:14:20;;;;;;;14.40;12.05;;;;;;;2.55;100.00;98243.63;5090523;28;20032;-64
2023/12/17 10:16:46;;;;;;;11.13;10.13;;;;;;;2.72;100.00;98239.81;5094214;28;20028;-63
2023/12/17 10:19:12;;;;;;;18.30;16.42;;;;;;;2.92;100.00;98241.16;5082111;28;20423;-63
2023/12/17 10:21:39;;;;;;;16.70;15.10;;;;;;;3.06;100.00;98241.72;5083979;28;20044;-63
2023/12/17 10:24:05;;;;;;;11.35;8.63;;;;;;;3.21;100.00;98235.31;5088661;28;20024;-63
2023/12/17 10:26:49;;;;;;;9.13;8.30;;;;;;;3.24;100.00;98227.44;5089458;28;20035;-63
2023/12/17 10:29:16;;;;;;;8.27;7.30;;;;;;;3.21;100.00;98211.06;5088576;28;20036;-64
2023/12/17 10:31:43;;;;;;;8.38;7.63;;;;;;;3.27;100.00;98213.50;5087682;28;20476;-63
2023/12/17 10:34:18;;;;;;;10.15;8.88;;;;;;;3.41;100.00;98201.00;5090756;28;20059;-63
2023/12/17 10:36:45;;;;;;;;;;;;;;;3.64;100.00;98193.56;5088478;28;20176;-63
2023/12/17 10:39:12;;;;;;;9.95;8.80;;;;;;;3.85;100.00;98194.75;5087587;28;19912;-63
2023/12/17 10:41:39;;;;;;;10.43;9.43;;;;;;;4.12;100.00;98193.22;5088011;28;20056;-63
2023/12/17 10:44:05;;;;;;;6.90;5.40;;;;;;;4.15;100.00;98184.47;5089984;28;20591;-63
2023/12/17 10:46:32;;;;;;;7.38;5.55;;;;;;;4.12;100.00;98176.72;5080639;28;20028;-63
2023/12/17 10:48:57;;;;;;;4.97;4.53;;;;;;;4.20;100.00;98179.97;5092083;28;20063;-64
2023/12/17 10:51:25;;;;;;;5.80;5.30;;;;;;;4.35;100.00;98170.03;5089168;28;20023;-63
2023/12/17 10:53:50;;;;;;;6.28;5.78;;;;;;;4.49;100.00;98165.25;5079626;28;20024;-63
2023/12/17 10:56:17;;;;;;;6.97;6.38;;;;;;;4.63;100.00;98166.63;5081493;28;20047;-63
2023/12/17 10:58:43;;;;;;;8.75;6.38;;;;;;;4.82;100.00;98169.56;5090644;28;20020;-62
2023/12/17 11:01:09;;;;;;;7.40;6.70;;;;;;;5.17;100.00;98162.44;5086859;28;20024;-63
2023/12/17 11:03:35;;;;;;;7.32;6.50;;;;;;;5.37;100.00;98153.94;5081390;28;20017;-63
2023/12/17 11:06:01;;;;;;;5.75;5.35;;;;;;;4.98;100.00;98121.22;5089047;28;20056;-63
2023/12/17 11:08:28;;;;;;;6.32;5.72;;;;;;;4.85;100.00;98115.50;5090645;28;20222;-63